PWSweather.com
Personal Weather Stations
Station Observations
PRATO
PratoIT 59100

PratoIT 59100

Lat: 43.8956799, Lon: 11.0845155

Elevation: 164

Station Type: Davis Vantage Vue

http://www.meteoprato.it

High Low Average
Temperature 63.8°F17.7°C 51.4°F10.8°C 55.4°F13.0°C
Dew Point 52.9°F11.6°C 42.4°F5.8°C 48.2°F9.0°C
Winds 17.8 mph 28.6 kmh Calm Calm 4.0 mph E6.4 kmh E
Wind Gusts 36.0 mph57.9 kmh -- 9.0 mph14.5 kmh
Humidity 92% 47% 78%
Pressure 29.84 in1010.5 mb 29.68 in1005.1 mb -
Precipitation 0.33 in8.4 mm - -
Hour Temp Dew Point Humidity Winds Wind Gusts Pressure Precip Precip Rate Daily Precip Total
12:00 AM 63.8°F17.7°C 43.2°F6.2°C 47% 3.7 mph SW6.0 kmh SW 7.0 mph11.3 kmh 29.80 in1009.1 mb 0.00 in0.0 mm 0.00 in0.0 mm 0.00 in0.0 mm
12:05 AM 63.8°F17.7°C 43.2°F6.2°C 47% 4.0 mph SW6.4 kmh SW 7.0 mph11.3 kmh 29.80 in1009.1 mb 0.00 in0.0 mm 0.00 in0.0 mm 0.00 in0.0 mm
12:10 AM 63.7°F17.6°C 43.6°F6.4°C 48% 3.4 mph NE5.5 kmh NE 10.0 mph16.1 kmh 29.80 in1009.1 mb 0.00 in0.0 mm 0.00 in0.0 mm 0.00 in0.0 mm
12:15 AM 63.5°F17.5°C 44.5°F6.9°C 50% 3.7 mph NE6.0 kmh NE 10.0 mph16.1 kmh 29.81 in1009.5 mb 0.00 in0.0 mm 0.00 in0.0 mm 0.00 in0.0 mm
12:20 AM 63.5°F17.5°C 44.5°F6.9°C 50% 4.2 mph NE6.8 kmh NE 7.0 mph11.3 kmh 29.81 in1009.5 mb 0.00 in0.0 mm 0.00 in0.0 mm 0.00 in0.0 mm
12:25 AM 63.3°F17.4°C 44.9°F7.2°C 51% 3.5 mph NE5.6 kmh NE 6.0 mph9.7 kmh 29.82 in1009.8 mb 0.00 in0.0 mm 0.00 in0.0 mm 0.00 in0.0 mm
12:30 AM 63.2°F17.3°C 43.7°F6.5°C 49% 3.4 mph NE5.5 kmh NE 7.0 mph11.3 kmh 29.83 in1010.2 mb 0.00 in0.0 mm 0.00 in0.0 mm 0.00 in0.0 mm
12:35 AM 63.1°F17.3°C 44.2°F6.8°C 50% 3.9 mph NE6.3 kmh NE 8.0 mph12.9 kmh 29.83 in1010.2 mb 0.00 in0.0 mm 0.00 in0.0 mm 0.00 in0.0 mm
12:40 AM 63.1°F17.3°C 44.2°F6.8°C 50% 4.2 mph NE6.8 kmh NE 10.0 mph16.1 kmh 29.83 in1010.2 mb 0.00 in0.0 mm 0.00 in0.0 mm 0.00 in0.0 mm
12:45 AM 62.8°F17.1°C 44.4°F6.9°C 51% 4.7 mph NE7.6 kmh NE 10.0 mph16.1 kmh 29.83 in1010.2 mb 0.00 in0.0 mm 0.00 in0.0 mm 0.00 in0.0 mm
12:50 AM 62.6°F17.0°C 44.2°F6.8°C 51% 5.0 mph NE8.0 kmh NE 9.0 mph14.5 kmh 29.84 in1010.5 mb 0.00 in0.0 mm 0.00 in0.0 mm 0.00 in0.0 mm
12:55 AM 62.4°F16.9°C 45.5°F7.5°C 54% 4.4 mph NE7.1 kmh NE 7.0 mph11.3 kmh 29.83 in1010.2 mb 0.00 in0.0 mm 0.00 in0.0 mm 0.00 in0.0 mm
01:00 AM 61.7°F16.5°C 46.8°F8.2°C 58% 3.8 mph NE6.1 kmh NE 11.0 mph17.7 kmh 29.81 in1009.5 mb 0.00 in0.0 mm 0.00 in0.0 mm 0.00 in0.0 mm
01:05 AM 60.9°F16.1°C 46.5°F8.1°C 59% 4.5 mph NE7.2 kmh NE 15.0 mph24.1 kmh 29.82 in1009.8 mb 0.00 in0.0 mm 0.00 in0.0 mm 0.00 in0.0 mm
01:10 AM 60.5°F15.8°C 46.5°F8.1°C 60% 6.4 mph NE10.3 kmh NE 15.0 mph24.1 kmh 29.82 in1009.8 mb 0.00 in0.0 mm 0.00 in0.0 mm 0.00 in0.0 mm
01:15 AM 60.0°F15.6°C 46.9°F8.3°C 62% 7.7 mph NE12.4 kmh NE 12.0 mph19.3 kmh 29.80 in1009.1 mb 0.00 in0.0 mm 0.00 in0.0 mm 0.00 in0.0 mm
01:20 AM 59.5°F15.3°C 47.7°F8.7°C 65% 7.8 mph NE12.6 kmh NE 14.0 mph22.5 kmh 29.78 in1008.5 mb 0.00 in0.0 mm 0.00 in0.0 mm 0.00 in0.0 mm
01:25 AM 59.1°F15.1°C 47.7°F8.7°C 66% 7.8 mph NE12.6 kmh NE 14.0 mph22.5 kmh 29.78 in1008.5 mb 0.00 in0.0 mm 0.00 in0.0 mm 0.00 in0.0 mm
01:30 AM 59.1°F15.1°C 47.7°F8.7°C 66% 7.6 mph NE12.2 kmh NE 13.0 mph20.9 kmh 29.78 in1008.5 mb 0.00 in0.0 mm 0.00 in0.0 mm 0.00 in0.0 mm
01:35 AM 59.6°F15.3°C 47.0°F8.3°C 63% 6.4 mph NE10.3 kmh NE 9.0 mph14.5 kmh 29.77 in1008.1 mb 0.00 in0.0 mm 0.00 in0.0 mm 0.00 in0.0 mm
01:40 AM 59.6°F15.3°C 47.0°F8.3°C 63% 5.3 mph NE8.5 kmh NE 15.0 mph24.1 kmh 29.75 in1007.5 mb 0.00 in0.0 mm 0.00 in0.0 mm 0.00 in0.0 mm
01:45 AM 59.6°F15.3°C 47.0°F8.3°C 63% 5.6 mph NE9.0 kmh NE 15.0 mph24.1 kmh 29.75 in1007.5 mb 0.00 in0.0 mm 0.00 in0.0 mm 0.00 in0.0 mm
01:50 AM 59.5°F15.3°C 46.9°F8.3°C 63% 7.1 mph NE11.4 kmh NE 15.0 mph24.1 kmh 29.74 in1007.1 mb 0.00 in0.0 mm 0.00 in0.0 mm 0.00 in0.0 mm
01:55 AM 59.5°F15.3°C 46.9°F8.3°C 63% 8.9 mph NE14.3 kmh NE 16.0 mph25.7 kmh 29.75 in1007.5 mb 0.00 in0.0 mm 0.00 in0.0 mm 0.00 in0.0 mm
02:00 AM 59.6°F15.3°C 46.6°F8.1°C 62% 9.5 mph NE15.3 kmh NE 16.0 mph25.7 kmh 29.74 in1007.1 mb 0.00 in0.0 mm 0.00 in0.0 mm 0.00 in0.0 mm
02:05 AM 59.7°F15.4°C 46.2°F7.9°C 61% 7.8 mph NE12.6 kmh NE 12.0 mph19.3 kmh 29.74 in1007.1 mb 0.00 in0.0 mm 0.00 in0.0 mm 0.00 in0.0 mm
02:10 AM 59.7°F15.4°C 46.7°F8.2°C 62% 5.2 mph NE8.4 kmh NE 10.0 mph16.1 kmh 29.73 in1006.8 mb 0.00 in0.0 mm 0.00 in0.0 mm 0.00 in0.0 mm
02:15 AM 59.5°F15.3°C 46.5°F8.1°C 62% 4.1 mph NE6.6 kmh NE 10.0 mph16.1 kmh 29.73 in1006.8 mb 0.00 in0.0 mm 0.00 in0.0 mm 0.00 in0.0 mm
02:20 AM 59.6°F15.3°C 46.1°F7.8°C 61% 3.6 mph NE5.8 kmh NE 10.0 mph16.1 kmh 29.74 in1007.1 mb 0.00 in0.0 mm 0.00 in0.0 mm 0.00 in0.0 mm
02:25 AM 59.7°F15.4°C 46.2°F7.9°C 61% 3.4 mph NE5.5 kmh NE 10.0 mph16.1 kmh 29.74 in1007.1 mb 0.00 in0.0 mm 0.00 in0.0 mm 0.00 in0.0 mm
02:30 AM 59.8°F15.4°C 46.3°F7.9°C 61% 3.8 mph NE6.1 kmh NE 10.0 mph16.1 kmh 29.75 in1007.5 mb 0.00 in0.0 mm 0.00 in0.0 mm 0.00 in0.0 mm
02:35 AM 60.1°F15.6°C 45.7°F7.6°C 59% 3.8 mph NE6.1 kmh NE 6.0 mph9.7 kmh 29.75 in1007.5 mb 0.00 in0.0 mm 0.00 in0.0 mm 0.00 in0.0 mm
02:40 AM 60.4°F15.8°C 45.5°F7.5°C 58% 3.3 mph NE5.3 kmh NE 9.0 mph14.5 kmh 29.76 in1007.8 mb 0.00 in0.0 mm 0.00 in0.0 mm 0.00 in0.0 mm
02:45 AM 60.8°F16.0°C 45.5°F7.5°C 57% 3.0 mph NE4.8 kmh NE 13.0 mph20.9 kmh 29.76 in1007.8 mb 0.00 in0.0 mm 0.00 in0.0 mm 0.00 in0.0 mm
02:50 AM 60.5°F15.8°C 46.1°F7.8°C 59% 4.1 mph NE6.6 kmh NE 13.0 mph20.9 kmh 29.76 in1007.8 mb 0.00 in0.0 mm 0.00 in0.0 mm 0.00 in0.0 mm
02:55 AM 60.0°F15.6°C 46.1°F7.8°C 60% 5.9 mph NE9.5 kmh NE 12.0 mph19.3 kmh 29.75 in1007.5 mb 0.00 in0.0 mm 0.00 in0.0 mm 0.00 in0.0 mm
03:00 AM 59.6°F15.3°C 45.7°F7.6°C 60% 6.9 mph NE11.1 kmh NE 18.0 mph29.0 kmh 29.75 in1007.5 mb 0.00 in0.0 mm 0.00 in0.0 mm 0.00 in0.0 mm
03:05 AM 59.2°F15.1°C 46.2°F7.9°C 62% 7.9 mph NE12.7 kmh NE 18.0 mph29.0 kmh 29.76 in1007.8 mb 0.00 in0.0 mm 0.00 in0.0 mm 0.00 in0.0 mm
03:10 AM 58.9°F14.9°C 46.3°F7.9°C 63% 8.4 mph NE13.5 kmh NE 16.0 mph25.7 kmh 29.76 in1007.8 mb 0.00 in0.0 mm 0.00 in0.0 mm 0.00 in0.0 mm
03:15 AM 58.8°F14.9°C 45.8°F7.7°C 62% 6.5 mph NE10.5 kmh NE 11.0 mph17.7 kmh 29.76 in1007.8 mb 0.00 in0.0 mm 0.00 in0.0 mm 0.00 in0.0 mm
03:20 AM 58.9°F14.9°C 46.3°F7.9°C 63% 4.7 mph NE7.6 kmh NE 14.0 mph22.5 kmh 29.77 in1008.1 mb 0.00 in0.0 mm 0.00 in0.0 mm 0.00 in0.0 mm
03:25 AM 58.7°F14.8°C 46.5°F8.1°C 64% 4.7 mph NE7.6 kmh NE 14.0 mph22.5 kmh 29.77 in1008.1 mb 0.01 in0.3 mm 0.12 in3.0 mm 0.01 in0.3 mm
03:30 AM 58.1°F14.5°C 46.8°F8.2°C 66% 4.8 mph NE7.7 kmh NE 16.0 mph25.7 kmh 29.76 in1007.8 mb 0.02 in0.5 mm 0.12 in3.0 mm 0.02 in0.5 mm
03:35 AM 57.5°F14.2°C 47.0°F8.3°C 68% 4.8 mph NE7.7 kmh NE 16.0 mph25.7 kmh 29.76 in1007.8 mb 0.02 in0.5 mm 0.00 in0.0 mm 0.02 in0.5 mm
03:40 AM 56.9°F13.8°C 47.2°F8.4°C 70% 4.7 mph NE7.6 kmh NE 9.0 mph14.5 kmh 29.76 in1007.8 mb 0.02 in0.5 mm 0.00 in0.0 mm 0.02 in0.5 mm
03:45 AM 56.6°F13.7°C 47.7°F8.7°C 72% 3.7 mph NE6.0 kmh NE 11.0 mph17.7 kmh 29.77 in1008.1 mb 0.02 in0.5 mm 0.00 in0.0 mm 0.02 in0.5 mm
03:50 AM 56.6°F13.7°C 47.3°F8.5°C 71% 3.5 mph NE5.6 kmh NE 11.0 mph17.7 kmh 29.77 in1008.1 mb 0.02 in0.5 mm 0.00 in0.0 mm 0.02 in0.5 mm
03:55 AM 56.5°F13.6°C 47.2°F8.4°C 71% 3.4 mph NE5.5 kmh NE 8.0 mph12.9 kmh 29.76 in1007.8 mb 0.03 in0.8 mm 0.12 in3.0 mm 0.03 in0.8 mm
04:00 AM 56.6°F13.7°C 47.3°F8.5°C 71% 3.0 mph NE4.8 kmh NE 8.0 mph12.9 kmh 29.75 in1007.5 mb 0.03 in0.8 mm 0.00 in0.0 mm 0.03 in0.8 mm
04:05 AM 56.2°F13.4°C 46.9°F8.3°C 71% 3.1 mph NE5.0 kmh NE 9.0 mph14.5 kmh 29.74 in1007.1 mb 0.03 in0.8 mm 0.00 in0.0 mm 0.03 in0.8 mm
04:10 AM 56.0°F13.3°C 46.7°F8.2°C 71% 3.7 mph NE6.0 kmh NE 15.0 mph24.1 kmh 29.74 in1007.1 mb 0.03 in0.8 mm 0.00 in0.0 mm 0.03 in0.8 mm
04:15 AM 55.9°F13.3°C 46.6°F8.1°C 71% 4.8 mph NE7.7 kmh NE 15.0 mph24.1 kmh 29.73 in1006.8 mb 0.03 in0.8 mm 0.00 in0.0 mm 0.03 in0.8 mm
04:20 AM 55.9°F13.3°C 46.3°F7.9°C 70% 6.3 mph NE10.1 kmh NE 20.0 mph32.2 kmh 29.72 in1006.4 mb 0.03 in0.8 mm 0.00 in0.0 mm 0.03 in0.8 mm
04:25 AM 55.9°F13.3°C 46.3°F7.9°C 70% 8.8 mph NE14.2 kmh NE 25.0 mph40.2 kmh 29.71 in1006.1 mb 0.02 in0.5 mm 0.00 in0.0 mm 0.03 in0.8 mm
04:30 AM 55.8°F13.2°C 46.2°F7.9°C 70% 12.0 mph NE19.3 kmh NE 25.0 mph40.2 kmh 29.71 in1006.1 mb 0.02 in0.5 mm 0.00 in0.0 mm 0.03 in0.8 mm
04:35 AM 55.7°F13.2°C 46.1°F7.8°C 70% 13.7 mph NE22.0 kmh NE 27.0 mph43.5 kmh 29.70 in1005.8 mb 0.01 in0.3 mm 0.00 in0.0 mm 0.03 in0.8 mm
04:40 AM 55.6°F13.1°C 46.0°F7.8°C 70% 13.5 mph NE21.7 kmh NE 27.0 mph43.5 kmh 29.70 in1005.8 mb 0.01 in0.3 mm 0.00 in0.0 mm 0.03 in0.8 mm
04:45 AM 55.8°F13.2°C 45.8°F7.7°C 69% 13.4 mph NE21.6 kmh NE 26.0 mph41.8 kmh 29.70 in1005.8 mb 0.01 in0.3 mm 0.00 in0.0 mm 0.03 in0.8 mm
04:50 AM 55.9°F13.3°C 45.5°F7.5°C 68% 14.6 mph NE23.5 kmh NE 28.0 mph45.1 kmh 29.69 in1005.4 mb 0.01 in0.3 mm 0.00 in0.0 mm 0.03 in0.8 mm
04:55 AM 56.1°F13.4°C 45.3°F7.4°C 67% 16.0 mph NE25.7 kmh NE 28.0 mph45.1 kmh 29.69 in1005.4 mb 0.00 in0.0 mm 0.00 in0.0 mm 0.03 in0.8 mm
05:00 AM 56.2°F13.4°C 45.0°F7.2°C 66% 16.0 mph NE25.7 kmh NE 23.0 mph37.0 kmh 29.69 in1005.4 mb 0.00 in0.0 mm 0.00 in0.0 mm 0.03 in0.8 mm
05:05 AM 56.1°F13.4°C 44.5°F6.9°C 65% 15.3 mph NE24.6 kmh NE 31.0 mph49.9 kmh 29.69 in1005.4 mb 0.00 in0.0 mm 0.00 in0.0 mm 0.03 in0.8 mm
05:10 AM 56.4°F13.6°C 44.0°F6.7°C 63% 15.9 mph NE25.6 kmh NE 36.0 mph57.9 kmh 29.68 in1005.1 mb 0.00 in0.0 mm 0.00 in0.0 mm 0.03 in0.8 mm
05:15 AM 55.9°F13.3°C 44.7°F7.1°C 66% 17.3 mph NE27.8 kmh NE 36.0 mph57.9 kmh 29.68 in1005.1 mb 0.00 in0.0 mm 0.00 in0.0 mm 0.03 in0.8 mm
05:20 AM 55.5°F13.1°C 44.7°F7.1°C 67% 16.9 mph NE27.2 kmh NE 28.0 mph45.1 kmh 29.68 in1005.1 mb 0.00 in0.0 mm 0.00 in0.0 mm 0.03 in0.8 mm
05:25 AM 55.8°F13.2°C 43.8°F6.6°C 64% 15.8 mph NE25.4 kmh NE 28.0 mph45.1 kmh 29.68 in1005.1 mb 0.00 in0.0 mm 0.00 in0.0 mm 0.03 in0.8 mm
05:30 AM 56.3°F13.5°C 43.4°F6.3°C 62% 16.4 mph NE26.4 kmh NE 31.0 mph49.9 kmh 29.68 in1005.1 mb 0.00 in0.0 mm 0.00 in0.0 mm 0.03 in0.8 mm
05:35 AM 55.9°F13.3°C 43.5°F6.4°C 63% 17.5 mph NE28.2 kmh NE 31.0 mph49.9 kmh 29.68 in1005.1 mb 0.00 in0.0 mm 0.00 in0.0 mm 0.03 in0.8 mm
05:40 AM 55.3°F12.9°C 43.7°F6.5°C 65% 17.7 mph NE28.5 kmh NE 29.0 mph46.7 kmh 29.69 in1005.4 mb 0.00 in0.0 mm 0.00 in0.0 mm 0.03 in0.8 mm
05:45 AM 55.0°F12.8°C 43.8°F6.6°C 66% 17.4 mph NE28.0 kmh NE 27.0 mph43.5 kmh 29.69 in1005.4 mb 0.00 in0.0 mm 0.00 in0.0 mm 0.03 in0.8 mm
05:50 AM 54.6°F12.6°C 43.9°F6.6°C 67% 17.3 mph NE27.8 kmh NE 29.0 mph46.7 kmh 29.69 in1005.4 mb 0.00 in0.0 mm 0.00 in0.0 mm 0.03 in0.8 mm
05:55 AM 54.0°F12.2°C 44.1°F6.7°C 69% 17.5 mph NE28.2 kmh NE 29.0 mph46.7 kmh 29.69 in1005.4 mb 0.01 in0.3 mm 0.12 in3.0 mm 0.04 in1.0 mm
06:00 AM 53.9°F12.2°C 44.3°F6.8°C 70% 17.8 mph NE28.6 kmh NE 34.0 mph54.7 kmh 29.68 in1005.1 mb 0.01 in0.3 mm 0.00 in0.0 mm 0.04 in1.0 mm
06:05 AM 53.5°F11.9°C 44.7°F7.1°C 72% 17.5 mph NE28.2 kmh NE 34.0 mph54.7 kmh 29.68 in1005.1 mb 0.02 in0.5 mm 0.12 in3.0 mm 0.05 in1.3 mm
06:10 AM 53.9°F12.2°C 44.3°F6.8°C 70% 16.2 mph NE26.1 kmh NE 27.0 mph43.5 kmh 29.68 in1005.1 mb 0.02 in0.5 mm 0.00 in0.0 mm 0.05 in1.3 mm
06:15 AM 54.0°F12.2°C 44.4°F6.9°C 70% 15.4 mph NE24.8 kmh NE 27.0 mph43.5 kmh 29.68 in1005.1 mb 0.02 in0.5 mm 0.00 in0.0 mm 0.05 in1.3 mm
06:20 AM 54.0°F12.2°C 44.4°F6.9°C 70% 15.7 mph NE25.3 kmh NE 28.0 mph45.1 kmh 29.68 in1005.1 mb 0.02 in0.5 mm 0.00 in0.0 mm 0.05 in1.3 mm
06:25 AM 53.8°F12.1°C 44.6°F7.0°C 71% 16.1 mph NE25.9 kmh NE 28.0 mph45.1 kmh 29.68 in1005.1 mb 0.02 in0.5 mm 0.00 in0.0 mm 0.06 in1.5 mm
06:30 AM 53.2°F11.8°C 45.1°F7.3°C 74% 16.1 mph NE25.9 kmh NE 28.0 mph45.1 kmh 29.68 in1005.1 mb 0.03 in0.8 mm 0.12 in3.0 mm 0.06 in1.5 mm
06:35 AM 52.8°F11.6°C 45.1°F7.3°C 75% 16.0 mph NE25.7 kmh NE 27.0 mph43.5 kmh 29.69 in1005.4 mb 0.03 in0.8 mm 0.00 in0.0 mm 0.06 in1.5 mm
06:40 AM 52.4°F11.3°C 45.1°F7.3°C 76% 16.0 mph NE25.7 kmh NE 29.0 mph46.7 kmh 29.69 in1005.4 mb 0.04 in1.0 mm 0.12 in3.0 mm 0.07 in1.8 mm
06:45 AM 52.7°F11.5°C 44.6°F7.0°C 74% 16.1 mph NE25.9 kmh NE 31.0 mph49.9 kmh 29.68 in1005.1 mb 0.04 in1.0 mm 0.00 in0.0 mm 0.07 in1.8 mm
06:50 AM 52.9°F11.6°C 44.8°F7.1°C 74% 16.3 mph NE26.2 kmh NE 31.0 mph49.9 kmh 29.68 in1005.1 mb 0.04 in1.0 mm 0.00 in0.0 mm 0.07 in1.8 mm
06:55 AM 53.2°F11.8°C 44.4°F6.9°C 72% 15.8 mph NE25.4 kmh NE 24.0 mph38.6 kmh 29.68 in1005.1 mb 0.03 in0.8 mm 0.00 in0.0 mm 0.07 in1.8 mm
07:00 AM 53.4°F11.9°C 44.2°F6.8°C 71% 15.0 mph NE24.1 kmh NE 24.0 mph38.6 kmh 29.68 in1005.1 mb 0.03 in0.8 mm 0.00 in0.0 mm 0.07 in1.8 mm
07:05 AM 53.8°F12.1°C 43.9°F6.6°C 69% 14.1 mph NE22.7 kmh NE 25.0 mph40.2 kmh 29.69 in1005.4 mb 0.02 in0.5 mm 0.00 in0.0 mm 0.07 in1.8 mm
07:10 AM 53.6°F12.0°C 44.0°F6.7°C 70% 12.8 mph NE20.6 kmh NE 25.0 mph40.2 kmh 29.69 in1005.4 mb 0.02 in0.5 mm 0.00 in0.0 mm 0.07 in1.8 mm
07:15 AM 53.4°F11.9°C 44.2°F6.8°C 71% 12.1 mph NE19.5 kmh NE 24.0 mph38.6 kmh 29.69 in1005.4 mb 0.02 in0.5 mm 0.00 in0.0 mm 0.07 in1.8 mm
07:20 AM 53.4°F11.9°C 43.9°F6.6°C 70% 12.0 mph NE19.3 kmh NE 25.0 mph40.2 kmh 29.70 in1005.8 mb 0.02 in0.5 mm 0.00 in0.0 mm 0.07 in1.8 mm
07:25 AM 53.6°F12.0°C 43.7°F6.5°C 69% 12.5 mph NE20.1 kmh NE 25.0 mph40.2 kmh 29.70 in1005.8 mb 0.02 in0.5 mm 0.00 in0.0 mm 0.08 in2.0 mm
07:30 AM 54.3°F12.4°C 42.4°F5.8°C 64% 13.0 mph NE20.9 kmh NE 26.0 mph41.8 kmh 29.71 in1006.1 mb 0.02 in0.5 mm 0.00 in0.0 mm 0.08 in2.0 mm
07:35 AM 54.5°F12.5°C 43.0°F6.1°C 65% 13.4 mph NE21.6 kmh NE 26.0 mph41.8 kmh 29.71 in1006.1 mb 0.02 in0.5 mm 0.00 in0.0 mm 0.09 in2.3 mm
07:40 AM 54.0°F12.2°C 43.7°F6.5°C 68% 13.8 mph NE22.2 kmh NE 22.0 mph35.4 kmh 29.72 in1006.4 mb 0.02 in0.5 mm 0.00 in0.0 mm 0.09 in2.3 mm
07:45 AM 53.5°F11.9°C 44.0°F6.7°C 70% 11.8 mph NE19.0 kmh NE 20.0 mph32.2 kmh 29.73 in1006.8 mb 0.03 in0.8 mm 0.12 in3.0 mm 0.10 in2.5 mm
07:50 AM 53.1°F11.7°C 44.3°F6.8°C 72% 7.3 mph NE11.7 kmh NE 11.0 mph17.7 kmh 29.75 in1007.5 mb 0.03 in0.8 mm 0.00 in0.0 mm 0.10 in2.5 mm
07:55 AM 52.9°F11.6°C 44.8°F7.1°C 74% 3.5 mph SW5.6 kmh SW 9.0 mph14.5 kmh 29.75 in1007.5 mb 0.04 in1.0 mm 0.12 in3.0 mm 0.11 in2.8 mm
08:00 AM 52.6°F11.4°C 45.6°F7.6°C 77% 2.1 mph NNE3.4 kmh NNE 6.0 mph9.7 kmh 29.75 in1007.5 mb 0.05 in1.3 mm 0.01 in0.3 mm 0.12 in3.0 mm
08:05 AM 52.3°F11.3°C 45.3°F7.4°C 77% 2.0 mph NE3.2 kmh NE 6.0 mph9.7 kmh 29.75 in1007.5 mb 0.06 in1.5 mm 0.12 in3.0 mm 0.13 in3.3 mm
08:10 AM 52.4°F11.3°C 44.7°F7.1°C 75% 2.3 mph NE3.7 kmh NE 11.0 mph17.7 kmh 29.75 in1007.5 mb 0.06 in1.5 mm 0.00 in0.0 mm 0.13 in3.3 mm
08:15 AM 52.1°F11.2°C 45.1°F7.3°C 77% 3.7 mph NE6.0 kmh NE 13.0 mph20.9 kmh 29.74 in1007.1 mb 0.06 in1.5 mm 0.00 in0.0 mm 0.13 in3.3 mm
08:20 AM 51.8°F11.0°C 45.2°F7.3°C 78% 5.5 mph NE8.9 kmh NE 13.0 mph20.9 kmh 29.75 in1007.5 mb 0.06 in1.5 mm 0.00 in0.0 mm 0.13 in3.3 mm
08:25 AM 51.6°F10.9°C 45.6°F7.6°C 80% 4.8 mph NE7.7 kmh NE 9.0 mph14.5 kmh 29.75 in1007.5 mb 0.06 in1.5 mm 0.00 in0.0 mm 0.14 in3.6 mm
08:30 AM 51.4°F10.8°C 45.8°F7.7°C 81% 2.1 mph N3.4 kmh N 1.0 mph1.6 kmh 29.75 in1007.5 mb 0.06 in1.5 mm 0.00 in0.0 mm 0.14 in3.6 mm
08:35 AM 51.5°F10.8°C 45.5°F7.5°C 80% 0.5 mph NE0.8 kmh NE 6.0 mph9.7 kmh 29.75 in1007.5 mb 0.06 in1.5 mm 0.00 in0.0 mm 0.15 in3.8 mm
08:40 AM 51.6°F10.9°C 45.6°F7.6°C 80% 0.9 mph NE1.4 kmh NE 6.0 mph9.7 kmh 29.75 in1007.5 mb 0.06 in1.5 mm 0.00 in0.0 mm 0.15 in3.8 mm
08:45 AM 51.6°F10.9°C 45.6°F7.6°C 80% 2.1 mph NE3.4 kmh NE 8.0 mph12.9 kmh 29.75 in1007.5 mb 0.05 in1.3 mm 0.00 in0.0 mm 0.15 in3.8 mm
08:50 AM 51.7°F10.9°C 45.1°F7.3°C 78% 3.5 mph NE5.6 kmh NE 14.0 mph22.5 kmh 29.75 in1007.5 mb 0.05 in1.3 mm 0.00 in0.0 mm 0.15 in3.8 mm
08:55 AM 52.1°F11.2°C 44.8°F7.1°C 76% 5.7 mph NE9.2 kmh NE 14.0 mph22.5 kmh 29.75 in1007.5 mb 0.05 in1.3 mm 0.00 in0.0 mm 0.16 in4.1 mm
09:00 AM 52.0°F11.1°C 45.0°F7.2°C 77% 7.4 mph NE11.9 kmh NE 13.0 mph20.9 kmh 29.75 in1007.5 mb 0.04 in1.0 mm 0.00 in0.0 mm 0.16 in4.1 mm
09:05 AM 52.0°F11.1°C 45.4°F7.4°C 78% 7.8 mph NE12.6 kmh NE 13.0 mph20.9 kmh 29.75 in1007.5 mb 0.03 in0.8 mm 0.00 in0.0 mm 0.16 in4.1 mm
09:10 AM 52.2°F11.2°C 45.5°F7.5°C 78% 7.0 mph NE11.3 kmh NE 10.0 mph16.1 kmh 29.76 in1007.8 mb 0.04 in1.0 mm 0.12 in3.0 mm 0.17 in4.3 mm
09:15 AM 52.3°F11.3°C 46.0°F7.8°C 79% 5.2 mph NE8.4 kmh NE 9.0 mph14.5 kmh 29.77 in1008.1 mb 0.03 in0.8 mm 0.00 in0.0 mm 0.17 in4.3 mm
09:20 AM 52.2°F11.2°C 46.5°F8.1°C 81% 2.9 mph NNE4.7 kmh NNE 3.0 mph4.8 kmh 29.77 in1008.1 mb 0.02 in0.5 mm 0.00 in0.0 mm 0.17 in4.3 mm
09:25 AM 52.2°F11.2°C 47.2°F8.4°C 83% 0.8 mph NE1.3 kmh NE 3.0 mph4.8 kmh 29.77 in1008.1 mb 0.02 in0.5 mm 0.00 in0.0 mm 0.17 in4.3 mm
09:30 AM 52.2°F11.2°C 47.8°F8.8°C 85% 0.4 mph NE0.6 kmh NE 5.0 mph8.0 kmh 29.76 in1007.8 mb 0.03 in0.8 mm 0.12 in3.0 mm 0.17 in4.3 mm
09:35 AM 52.1°F11.2°C 48.0°F8.9°C 86% 1.3 mph NE2.1 kmh NE 5.0 mph8.0 kmh 29.76 in1007.8 mb 0.03 in0.8 mm 0.00 in0.0 mm 0.18 in4.6 mm
09:40 AM 52.1°F11.2°C 48.3°F9.1°C 87% 1.6 mph NE2.6 kmh NE 4.0 mph6.4 kmh 29.76 in1007.8 mb 0.03 in0.8 mm 0.00 in0.0 mm 0.18 in4.6 mm
09:45 AM 52.1°F11.2°C 48.3°F9.1°C 87% 1.1 mph NE1.8 kmh NE 4.0 mph6.4 kmh 29.76 in1007.8 mb 0.04 in1.0 mm 0.12 in3.0 mm 0.19 in4.8 mm
09:50 AM 51.8°F11.0°C 48.1°F8.9°C 87% 1.2 mph NE1.9 kmh NE 5.0 mph8.0 kmh 29.75 in1007.5 mb 0.04 in1.0 mm 0.00 in0.0 mm 0.19 in4.8 mm
09:55 AM 51.7°F10.9°C 48.0°F8.9°C 87% 2.3 mph NE3.7 kmh NE 5.0 mph8.0 kmh 29.76 in1007.8 mb 0.04 in1.0 mm 0.00 in0.0 mm 0.20 in5.1 mm
10:00 AM 51.7°F10.9°C 48.0°F8.9°C 87% 2.5 mph NE4.0 kmh NE 5.0 mph8.0 kmh 29.76 in1007.8 mb 0.04 in1.0 mm 0.00 in0.0 mm 0.20 in5.1 mm
10:05 AM 51.8°F11.0°C 48.4°F9.1°C 88% 1.6 mph NE2.6 kmh NE 3.0 mph4.8 kmh 29.75 in1007.5 mb 0.04 in1.0 mm 0.00 in0.0 mm 0.20 in5.1 mm
10:10 AM 51.8°F11.0°C 48.1°F8.9°C 87% 1.4 mph NE2.3 kmh NE 6.0 mph9.7 kmh 29.75 in1007.5 mb 0.03 in0.8 mm 0.00 in0.0 mm 0.20 in5.1 mm
10:15 AM 51.9°F11.1°C 48.2°F9.0°C 87% 1.4 mph NE2.3 kmh NE 6.0 mph9.7 kmh 29.75 in1007.5 mb 0.03 in0.8 mm 0.00 in0.0 mm 0.20 in5.1 mm
10:20 AM 52.2°F11.2°C 48.8°F9.3°C 88% 0.7 mph WSW1.1 kmh WSW 2.0 mph3.2 kmh 29.75 in1007.5 mb 0.03 in0.8 mm 0.00 in0.0 mm 0.20 in5.1 mm
10:25 AM 52.4°F11.3°C 48.9°F9.4°C 88% 0.2 mph WSW0.3 kmh WSW 2.0 mph3.2 kmh 29.75 in1007.5 mb 0.03 in0.8 mm 0.00 in0.0 mm 0.20 in5.1 mm
10:30 AM 52.4°F11.3°C 48.6°F9.2°C 87% Calm Calm 3.0 mph4.8 kmh 29.75 in1007.5 mb 0.02 in0.5 mm 0.00 in0.0 mm 0.20 in5.1 mm
10:35 AM 52.3°F11.3°C 48.5°F9.2°C 87% 0.3 mph WSW0.5 kmh WSW 3.0 mph4.8 kmh 29.75 in1007.5 mb 0.02 in0.5 mm 0.00 in0.0 mm 0.20 in5.1 mm
10:40 AM 52.2°F11.2°C 48.4°F9.1°C 87% 1.1 mph WSW1.8 kmh WSW 5.0 mph8.0 kmh 29.75 in1007.5 mb 0.02 in0.5 mm 0.00 in0.0 mm 0.20 in5.1 mm
10:45 AM 52.4°F11.3°C 48.9°F9.4°C 88% 1.5 mph WSW2.4 kmh WSW 5.0 mph8.0 kmh 29.75 in1007.5 mb 0.01 in0.3 mm 0.00 in0.0 mm 0.20 in5.1 mm
10:50 AM 52.6°F11.4°C 49.1°F9.5°C 88% 0.9 mph 1.4 kmh -- 29.76 in1007.8 mb 0.01 in0.3 mm 0.00 in0.0 mm 0.20 in5.1 mm
10:55 AM 52.7°F11.5°C 49.2°F9.6°C 88% 0.2 mph 0.3 kmh -- 29.75 in1007.5 mb 0.01 in0.3 mm 0.00 in0.0 mm 0.20 in5.1 mm
11:00 AM 52.7°F11.5°C 49.2°F9.6°C 88% Calm Calm 3.0 mph4.8 kmh 29.75 in1007.5 mb 0.01 in0.3 mm 0.00 in0.0 mm 0.20 in5.1 mm
11:05 AM 52.5°F11.4°C 49.0°F9.4°C 88% 0.3 mph NE0.5 kmh NE 3.0 mph4.8 kmh 29.75 in1007.5 mb 0.01 in0.3 mm 0.00 in0.0 mm 0.20 in5.1 mm
11:10 AM 52.6°F11.4°C 49.1°F9.5°C 88% 0.8 mph NE1.3 kmh NE 3.0 mph4.8 kmh 29.75 in1007.5 mb 0.01 in0.3 mm 0.00 in0.0 mm 0.20 in5.1 mm
11:15 AM 52.6°F11.4°C 49.1°F9.5°C 88% 0.9 mph NNE1.4 kmh NNE 2.0 mph3.2 kmh 29.75 in1007.5 mb 0.02 in0.5 mm 0.12 in3.0 mm 0.21 in5.3 mm
11:20 AM 52.6°F11.4°C 49.1°F9.5°C 88% 0.4 mph NNE0.6 kmh NNE 2.0 mph3.2 kmh 29.75 in1007.5 mb 0.02 in0.5 mm 0.00 in0.0 mm 0.21 in5.3 mm
11:25 AM 52.5°F11.4°C 48.4°F9.1°C 86% 0.4 mph NE0.6 kmh NE 6.0 mph9.7 kmh 29.75 in1007.5 mb 0.02 in0.5 mm 0.00 in0.0 mm 0.22 in5.6 mm
11:30 AM 52.5°F11.4°C 48.1°F8.9°C 85% 1.5 mph NE2.4 kmh NE 8.0 mph12.9 kmh 29.75 in1007.5 mb 0.02 in0.5 mm 0.00 in0.0 mm 0.22 in5.6 mm
11:35 AM 52.3°F11.3°C 47.9°F8.8°C 85% 3.2 mph NE5.1 kmh NE 10.0 mph16.1 kmh 29.75 in1007.5 mb 0.03 in0.8 mm 0.12 in3.0 mm 0.23 in5.8 mm
11:40 AM 52.3°F11.3°C 47.6°F8.7°C 84% 4.6 mph NE7.4 kmh NE 12.0 mph19.3 kmh 29.74 in1007.1 mb 0.04 in1.0 mm 0.12 in3.0 mm 0.24 in6.1 mm
11:45 AM 52.4°F11.3°C 47.7°F8.7°C 84% 5.6 mph NE9.0 kmh NE 14.0 mph22.5 kmh 29.74 in1007.1 mb 0.04 in1.0 mm 0.00 in0.0 mm 0.24 in6.1 mm
11:50 AM 52.6°F11.4°C 47.6°F8.7°C 83% 6.6 mph NE10.6 kmh NE 14.0 mph22.5 kmh 29.74 in1007.1 mb 0.05 in1.3 mm 0.12 in3.0 mm 0.24 in6.1 mm
11:55 AM 52.7°F11.5°C 47.4°F8.6°C 82% 7.1 mph NE11.4 kmh NE 12.0 mph19.3 kmh 29.74 in1007.1 mb 0.04 in1.0 mm 0.00 in0.0 mm 0.24 in6.1 mm
12:00 PM 52.9°F11.6°C 47.2°F8.4°C 81% 7.0 mph NE11.3 kmh NE 13.0 mph20.9 kmh 29.73 in1006.8 mb 0.04 in1.0 mm 0.00 in0.0 mm 0.24 in6.1 mm
12:05 PM 53.2°F11.8°C 46.9°F8.3°C 79% 7.3 mph NE11.7 kmh NE 16.0 mph25.7 kmh 29.73 in1006.8 mb 0.04 in1.0 mm 0.00 in0.0 mm 0.24 in6.1 mm
12:10 PM 53.2°F11.8°C 46.9°F8.3°C 79% 8.1 mph NE13.0 kmh NE 17.0 mph27.4 kmh 29.73 in1006.8 mb 0.04 in1.0 mm 0.00 in0.0 mm 0.24 in6.1 mm
12:15 PM 53.2°F11.8°C 46.9°F8.3°C 79% 8.7 mph NE14.0 kmh NE 17.0 mph27.4 kmh 29.73 in1006.8 mb 0.04 in1.0 mm 0.00 in0.0 mm 0.25 in6.4 mm
12:20 PM 53.5°F11.9°C 47.1°F8.4°C 79% 9.0 mph NE14.5 kmh NE 15.0 mph24.1 kmh 29.73 in1006.8 mb 0.04 in1.0 mm 0.00 in0.0 mm 0.25 in6.4 mm
12:25 PM 53.4°F11.9°C 47.0°F8.3°C 79% 8.0 mph NE12.9 kmh NE 15.0 mph24.1 kmh 29.73 in1006.8 mb 0.03 in0.8 mm 0.00 in0.0 mm 0.25 in6.4 mm
12:30 PM 53.3°F11.8°C 47.3°F8.5°C 80% 6.2 mph NE10.0 kmh NE 12.0 mph19.3 kmh 29.73 in1006.8 mb 0.02 in0.5 mm 0.00 in0.0 mm 0.25 in6.4 mm
12:35 PM 53.2°F11.8°C 46.5°F8.1°C 78% 5.2 mph NE8.4 kmh NE 11.0 mph17.7 kmh 29.73 in1006.8 mb 0.02 in0.5 mm 0.00 in0.0 mm 0.25 in6.4 mm
12:40 PM 53.3°F11.8°C 47.3°F8.5°C 80% 4.8 mph NE7.7 kmh NE 10.0 mph16.1 kmh 29.73 in1006.8 mb 0.02 in0.5 mm 0.00 in0.0 mm 0.25 in6.4 mm
12:45 PM 53.3°F11.8°C 47.6°F8.7°C 81% 3.8 mph NE6.1 kmh NE 11.0 mph17.7 kmh 29.72 in1006.4 mb 0.02 in0.5 mm 0.00 in0.0 mm 0.25 in6.4 mm
12:50 PM 53.6°F12.0°C 47.2°F8.4°C 79% 3.2 mph NE5.1 kmh NE 11.0 mph17.7 kmh 29.72 in1006.4 mb 0.01 in0.3 mm 0.00 in0.0 mm 0.25 in6.4 mm
12:55 PM 53.7°F12.1°C 47.3°F8.5°C 79% 4.0 mph NE6.4 kmh NE 8.0 mph12.9 kmh 29.72 in1006.4 mb 0.01 in0.3 mm 0.00 in0.0 mm 0.25 in6.4 mm
01:00 PM 53.8°F12.1°C 47.4°F8.6°C 79% 4.8 mph NE7.7 kmh NE 8.0 mph12.9 kmh 29.72 in1006.4 mb 0.01 in0.3 mm 0.00 in0.0 mm 0.25 in6.4 mm
01:05 PM 54.0°F12.2°C 47.6°F8.7°C 79% 5.0 mph NE8.0 kmh NE 8.0 mph12.9 kmh 29.72 in1006.4 mb 0.01 in0.3 mm 0.00 in0.0 mm 0.25 in6.4 mm
01:10 PM 54.3°F12.4°C 47.9°F8.8°C 79% 5.0 mph NE8.0 kmh NE 8.0 mph12.9 kmh 29.72 in1006.4 mb 0.01 in0.3 mm 0.00 in0.0 mm 0.25 in6.4 mm
01:15 PM 54.5°F12.5°C 47.8°F8.8°C 78% 5.0 mph NE8.0 kmh NE 8.0 mph12.9 kmh 29.72 in1006.4 mb 0.00 in0.0 mm 0.00 in0.0 mm 0.25 in6.4 mm
01:20 PM 54.8°F12.7°C 47.7°F8.7°C 77% 5.0 mph NE8.0 kmh NE 11.0 mph17.7 kmh 29.72 in1006.4 mb 0.00 in0.0 mm 0.00 in0.0 mm 0.25 in6.4 mm
01:25 PM 55.0°F12.8°C 47.9°F8.8°C 77% 4.9 mph NE7.9 kmh NE 11.0 mph17.7 kmh 29.72 in1006.4 mb 0.00 in0.0 mm 0.00 in0.0 mm 0.25 in6.4 mm
01:30 PM 55.1°F12.8°C 48.0°F8.9°C 77% 4.1 mph NE6.6 kmh NE 8.0 mph12.9 kmh 29.73 in1006.8 mb 0.00 in0.0 mm 0.00 in0.0 mm 0.25 in6.4 mm
01:35 PM 55.2°F12.9°C 47.8°F8.8°C 76% 2.8 mph NE4.5 kmh NE 4.0 mph6.4 kmh 29.73 in1006.8 mb 0.00 in0.0 mm 0.00 in0.0 mm 0.25 in6.4 mm
01:40 PM 55.4°F13.0°C 48.3°F9.1°C 77% 2.0 mph NE3.2 kmh NE 4.0 mph6.4 kmh 29.73 in1006.8 mb 0.00 in0.0 mm 0.00 in0.0 mm 0.25 in6.4 mm
01:45 PM 55.5°F13.1°C 48.4°F9.1°C 77% 1.5 mph NE2.4 kmh NE 2.0 mph3.2 kmh 29.73 in1006.8 mb 0.00 in0.0 mm 0.00 in0.0 mm 0.25 in6.4 mm
01:50 PM 55.5°F13.1°C 48.4°F9.1°C 77% 0.8 mph NNE1.3 kmh NNE 2.0 mph3.2 kmh 29.73 in1006.8 mb 0.00 in0.0 mm 0.00 in0.0 mm 0.25 in6.4 mm
01:55 PM 55.4°F13.0°C 48.3°F9.1°C 77% 0.3 mph 0.5 kmh -- 29.73 in1006.8 mb 0.00 in0.0 mm 0.00 in0.0 mm 0.25 in6.4 mm
02:00 PM 55.3°F12.9°C 48.2°F9.0°C 77% Calm Calm -- 29.73 in1006.8 mb 0.00 in0.0 mm 0.00 in0.0 mm 0.25 in6.4 mm
02:05 PM 55.4°F13.0°C 48.3°F9.1°C 77% Calm Calm -- 29.73 in1006.8 mb 0.00 in0.0 mm 0.00 in0.0 mm 0.25 in6.4 mm
02:10 PM 55.5°F13.1°C 48.4°F9.1°C 77% Calm Calm -- 29.74 in1007.1 mb 0.00 in0.0 mm 0.00 in0.0 mm 0.25 in6.4 mm
02:15 PM 55.5°F13.1°C 48.1°F8.9°C 76% 0.1 mph WSW0.2 kmh WSW 4.0 mph6.4 kmh 29.73 in1006.8 mb 0.00 in0.0 mm 0.00 in0.0 mm 0.25 in6.4 mm
02:20 PM 55.7°F13.2°C 48.6°F9.2°C 77% 0.6 mph WSW1.0 kmh WSW 4.0 mph6.4 kmh 29.74 in1007.1 mb 0.00 in0.0 mm 0.00 in0.0 mm 0.25 in6.4 mm
02:25 PM 55.8°F13.2°C 49.0°F9.4°C 78% 0.8 mph WSW1.3 kmh WSW 1.0 mph1.6 kmh 29.74 in1007.1 mb 0.00 in0.0 mm 0.00 in0.0 mm 0.25 in6.4 mm
02:30 PM 55.8°F13.2°C 48.7°F9.3°C 77% 0.5 mph NNE0.8 kmh NNE 5.0 mph8.0 kmh 29.74 in1007.1 mb 0.00 in0.0 mm 0.00 in0.0 mm 0.25 in6.4 mm
02:35 PM 55.8°F13.2°C 47.6°F8.7°C 74% 0.9 mph NE1.4 kmh NE 7.0 mph11.3 kmh 29.74 in1007.1 mb 0.00 in0.0 mm 0.00 in0.0 mm 0.25 in6.4 mm
02:40 PM 55.9°F13.3°C 48.8°F9.3°C 77% 1.6 mph NE2.6 kmh NE 7.0 mph11.3 kmh 29.74 in1007.1 mb 0.00 in0.0 mm 0.00 in0.0 mm 0.25 in6.4 mm
02:45 PM 55.7°F13.2°C 48.9°F9.4°C 78% 2.0 mph NE3.2 kmh NE 5.0 mph8.0 kmh 29.74 in1007.1 mb 0.01 in0.3 mm 0.12 in3.0 mm 0.26 in6.6 mm
02:50 PM 55.5°F13.1°C 49.4°F9.7°C 80% 2.1 mph NE3.4 kmh NE 5.0 mph8.0 kmh 29.74 in1007.1 mb 0.01 in0.3 mm 0.00 in0.0 mm 0.26 in6.6 mm
02:55 PM 55.3°F12.9°C 50.2°F10.1°C 83% 2.3 mph NE3.7 kmh NE 5.0 mph8.0 kmh 29.74 in1007.1 mb 0.02 in0.5 mm 0.12 in3.0 mm 0.27 in6.9 mm
03:00 PM 55.0°F12.8°C 49.6°F9.8°C 82% 2.2 mph NE3.5 kmh NE 6.0 mph9.7 kmh 29.74 in1007.1 mb 0.02 in0.5 mm 0.00 in0.0 mm 0.27 in6.9 mm
03:05 PM 55.1°F12.8°C 49.7°F9.8°C 82% 2.0 mph NE3.2 kmh NE 6.0 mph9.7 kmh 29.74 in1007.1 mb 0.02 in0.5 mm 0.00 in0.0 mm 0.27 in6.9 mm
03:10 PM 55.1°F12.8°C 49.0°F9.4°C 80% 2.4 mph NE3.9 kmh NE 5.0 mph8.0 kmh 29.75 in1007.5 mb 0.02 in0.5 mm 0.00 in0.0 mm 0.28 in7.1 mm
03:15 PM 55.0°F12.8°C 49.3°F9.6°C 81% 2.9 mph NE4.7 kmh NE 5.0 mph8.0 kmh 29.75 in1007.5 mb 0.03 in0.8 mm 0.12 in3.0 mm 0.28 in7.1 mm
03:20 PM 55.1°F12.8°C 49.4°F9.7°C 81% 2.6 mph NE4.2 kmh NE 5.0 mph8.0 kmh 29.74 in1007.1 mb 0.03 in0.8 mm 0.00 in0.0 mm 0.28 in7.1 mm
03:25 PM 55.0°F12.8°C 49.3°F9.6°C 81% 1.8 mph NE2.9 kmh NE 4.0 mph6.4 kmh 29.75 in1007.5 mb 0.04 in1.0 mm 0.12 in3.0 mm 0.29 in7.4 mm
03:30 PM 55.0°F12.8°C 48.9°F9.4°C 80% 1.4 mph NE2.3 kmh NE 5.0 mph8.0 kmh 29.75 in1007.5 mb 0.04 in1.0 mm 0.00 in0.0 mm 0.29 in7.4 mm
03:35 PM 55.1°F12.8°C 49.4°F9.7°C 81% 1.6 mph NE2.6 kmh NE 5.0 mph8.0 kmh 29.75 in1007.5 mb 0.04 in1.0 mm 0.00 in0.0 mm 0.29 in7.4 mm
03:40 PM 55.2°F12.9°C 49.5°F9.7°C 81% 2.0 mph NE3.2 kmh NE 3.0 mph4.8 kmh 29.75 in1007.5 mb 0.03 in0.8 mm 0.00 in0.0 mm 0.29 in7.4 mm
03:45 PM 55.4°F13.0°C 50.0°F10.0°C 82% 1.9 mph NE3.1 kmh NE 3.0 mph4.8 kmh 29.75 in1007.5 mb 0.03 in0.8 mm 0.00 in0.0 mm 0.29 in7.4 mm
03:50 PM 55.7°F13.2°C 50.3°F10.2°C 82% 1.3 mph NE2.1 kmh NE 2.0 mph3.2 kmh 29.75 in1007.5 mb 0.03 in0.8 mm 0.00 in0.0 mm 0.30 in7.6 mm
03:55 PM 55.9°F13.3°C 50.5°F10.3°C 82% 0.5 mph NE0.8 kmh NE 1.0 mph1.6 kmh 29.75 in1007.5 mb 0.03 in0.8 mm 0.00 in0.0 mm 0.30 in7.6 mm
04:00 PM 56.3°F13.5°C 51.2°F10.7°C 83% Calm Calm 1.0 mph1.6 kmh 29.74 in1007.1 mb 0.03 in0.8 mm 0.00 in0.0 mm 0.30 in7.6 mm
04:05 PM 56.7°F13.7°C 51.3°F10.7°C 82% Calm Calm 1.0 mph1.6 kmh 29.74 in1007.1 mb 0.03 in0.8 mm 0.00 in0.0 mm 0.30 in7.6 mm
04:10 PM 56.9°F13.8°C 51.8°F11.0°C 83% Calm Calm 4.0 mph6.4 kmh 29.75 in1007.5 mb 0.02 in0.5 mm 0.00 in0.0 mm 0.30 in7.6 mm
04:15 PM 56.8°F13.8°C 52.0°F11.1°C 84% 0.4 mph WSW0.6 kmh WSW 4.0 mph6.4 kmh 29.75 in1007.5 mb 0.02 in0.5 mm 0.00 in0.0 mm 0.30 in7.6 mm
04:20 PM 58.0°F14.4°C 52.9°F11.6°C 83% 0.9 mph WSW1.4 kmh WSW 4.0 mph6.4 kmh 29.74 in1007.1 mb 0.02 in0.5 mm 0.00 in0.0 mm 0.30 in7.6 mm
04:25 PM 59.0°F15.0°C 52.8°F11.6°C 80% 0.6 mph WSW1.0 kmh WSW 1.0 mph1.6 kmh 29.75 in1007.5 mb 0.01 in0.3 mm 0.00 in0.0 mm 0.30 in7.6 mm
04:30 PM 59.7°F15.4°C 52.8°F11.6°C 78% 0.2 mph WSW0.3 kmh WSW 8.0 mph12.9 kmh 29.75 in1007.5 mb 0.01 in0.3 mm 0.00 in0.0 mm 0.30 in7.6 mm
04:35 PM 59.1°F15.1°C 52.6°F11.4°C 79% 1.1 mph WSW1.8 kmh WSW 10.0 mph16.1 kmh 29.75 in1007.5 mb 0.01 in0.3 mm 0.00 in0.0 mm 0.30 in7.6 mm
04:40 PM 58.4°F14.7°C 52.3°F11.3°C 80% 3.2 mph WSW5.1 kmh WSW 11.0 mph17.7 kmh 29.76 in1007.8 mb 0.01 in0.3 mm 0.00 in0.0 mm 0.30 in7.6 mm
04:45 PM 57.6°F14.2°C 51.5°F10.8°C 80% 5.1 mph WSW8.2 kmh WSW 11.0 mph17.7 kmh 29.76 in1007.8 mb 0.01 in0.3 mm 0.00 in0.0 mm 0.30 in7.6 mm
04:50 PM 57.5°F14.2°C 51.4°F10.8°C 80% 5.4 mph WSW8.7 kmh WSW 9.0 mph14.5 kmh 29.76 in1007.8 mb 0.00 in0.0 mm 0.00 in0.0 mm 0.30 in7.6 mm
04:55 PM 57.6°F14.2°C 51.8°F11.0°C 81% 4.1 mph WSW6.6 kmh WSW 7.0 mph11.3 kmh 29.76 in1007.8 mb 0.00 in0.0 mm 0.00 in0.0 mm 0.30 in7.6 mm
05:00 PM 57.3°F14.1°C 51.5°F10.8°C 81% 2.7 mph WSW4.3 kmh WSW 5.0 mph8.0 kmh 29.76 in1007.8 mb 0.00 in0.0 mm 0.00 in0.0 mm 0.30 in7.6 mm
05:05 PM 57.0°F13.9°C 51.6°F10.9°C 82% 2.1 mph WSW3.4 kmh WSW 5.0 mph8.0 kmh 29.76 in1007.8 mb 0.00 in0.0 mm 0.00 in0.0 mm 0.30 in7.6 mm
05:10 PM 56.8°F13.8°C 51.4°F10.8°C 82% 2.4 mph WSW3.9 kmh WSW 6.0 mph9.7 kmh 29.76 in1007.8 mb 0.00 in0.0 mm 0.00 in0.0 mm 0.30 in7.6 mm
05:15 PM 56.4°F13.6°C 51.3°F10.7°C 83% 2.7 mph WSW4.3 kmh WSW 6.0 mph9.7 kmh 29.77 in1008.1 mb 0.00 in0.0 mm 0.00 in0.0 mm 0.30 in7.6 mm
05:20 PM 56.2°F13.4°C 51.4°F10.8°C 84% 2.7 mph WSW4.3 kmh WSW 4.0 mph6.4 kmh 29.77 in1008.1 mb 0.00 in0.0 mm 0.00 in0.0 mm 0.30 in7.6 mm
05:25 PM 56.1°F13.4°C 51.3°F10.7°C 84% 2.3 mph WSW3.7 kmh WSW 4.0 mph6.4 kmh 29.77 in1008.1 mb 0.00 in0.0 mm 0.00 in0.0 mm 0.30 in7.6 mm
05:30 PM 55.9°F13.3°C 51.1°F10.6°C 84% 2.0 mph WSW3.2 kmh WSW 4.0 mph6.4 kmh 29.77 in1008.1 mb 0.00 in0.0 mm 0.00 in0.0 mm 0.30 in7.6 mm
05:35 PM 55.8°F13.2°C 51.0°F10.6°C 84% 1.8 mph WSW2.9 kmh WSW 3.0 mph4.8 kmh 29.77 in1008.1 mb 0.00 in0.0 mm 0.00 in0.0 mm 0.30 in7.6 mm
05:40 PM 55.7°F13.2°C 50.6°F10.3°C 83% 1.1 mph WSW1.8 kmh WSW 2.0 mph3.2 kmh 29.77 in1008.1 mb 0.00 in0.0 mm 0.00 in0.0 mm 0.30 in7.6 mm
05:45 PM 55.7°F13.2°C 50.9°F10.5°C 84% 0.4 mph 0.6 kmh -- 29.77 in1008.1 mb 0.00 in0.0 mm 0.00 in0.0 mm 0.30 in7.6 mm
05:50 PM 55.8°F13.2°C 51.0°F10.6°C 84% Calm Calm -- 29.78 in1008.5 mb 0.00 in0.0 mm 0.00 in0.0 mm 0.30 in7.6 mm
05:55 PM 55.8°F13.2°C 51.0°F10.6°C 84% Calm Calm 3.0 mph4.8 kmh 29.78 in1008.5 mb 0.00 in0.0 mm 0.00 in0.0 mm 0.30 in7.6 mm
06:00 PM 55.9°F13.3°C 50.8°F10.4°C 83% 0.5 mph WSW0.8 kmh WSW 4.0 mph6.4 kmh 29.78 in1008.5 mb 0.00 in0.0 mm 0.00 in0.0 mm 0.30 in7.6 mm
06:05 PM 55.9°F13.3°C 50.8°F10.4°C 83% 1.0 mph WSW1.6 kmh WSW 4.0 mph6.4 kmh 29.78 in1008.5 mb 0.00 in0.0 mm 0.00 in0.0 mm 0.30 in7.6 mm
06:10 PM 56.0°F13.3°C 50.9°F10.5°C 83% 0.6 mph WSW1.0 kmh WSW 1.0 mph1.6 kmh 29.78 in1008.5 mb 0.00 in0.0 mm 0.00 in0.0 mm 0.30 in7.6 mm
06:15 PM 56.1°F13.4°C 51.3°F10.7°C 84% 0.1 mph WSW0.2 kmh WSW 1.0 mph1.6 kmh 29.78 in1008.5 mb 0.00 in0.0 mm 0.00 in0.0 mm 0.30 in7.6 mm
06:20 PM 56.1°F13.4°C 51.3°F10.7°C 84% Calm Calm 2.0 mph3.2 kmh 29.78 in1008.5 mb 0.00 in0.0 mm 0.00 in0.0 mm 0.30 in7.6 mm
06:25 PM 56.1°F13.4°C 51.7°F10.9°C 85% Calm Calm 2.0 mph3.2 kmh 29.79 in1008.8 mb 0.00 in0.0 mm 0.00 in0.0 mm 0.30 in7.6 mm
06:30 PM 56.0°F13.3°C 51.2°F10.7°C 84% Calm Calm 1.0 mph1.6 kmh 29.79 in1008.8 mb 0.00 in0.0 mm 0.00 in0.0 mm 0.30 in7.6 mm
06:35 PM 55.9°F13.3°C 51.1°F10.6°C 84% Calm Calm 1.0 mph1.6 kmh 29.79 in1008.8 mb 0.00 in0.0 mm 0.00 in0.0 mm 0.30 in7.6 mm
06:40 PM 55.9°F13.3°C 51.1°F10.6°C 84% Calm Calm 1.0 mph1.6 kmh 29.79 in1008.8 mb 0.00 in0.0 mm 0.00 in0.0 mm 0.30 in7.6 mm
06:45 PM 55.9°F13.3°C 51.1°F10.6°C 84% Calm Calm -- 29.79 in1008.8 mb 0.00 in0.0 mm 0.00 in0.0 mm 0.30 in7.6 mm
06:50 PM 55.8°F13.2°C 51.4°F10.8°C 85% Calm Calm -- 29.79 in1008.8 mb 0.00 in0.0 mm 0.00 in0.0 mm 0.30 in7.6 mm
06:55 PM 55.7°F13.2°C 51.3°F10.7°C 85% Calm Calm -- 29.79 in1008.8 mb 0.00 in0.0 mm 0.00 in0.0 mm 0.30 in7.6 mm
07:00 PM 55.7°F13.2°C 51.3°F10.7°C 85% Calm Calm -- 29.80 in1009.1 mb 0.00 in0.0 mm 0.00 in0.0 mm 0.30 in7.6 mm
07:05 PM 55.7°F13.2°C 51.3°F10.7°C 85% Calm Calm -- 29.80 in1009.1 mb 0.00 in0.0 mm 0.00 in0.0 mm 0.30 in7.6 mm
07:10 PM 55.6°F13.1°C 51.2°F10.7°C 85% Calm Calm -- 29.80 in1009.1 mb 0.00 in0.0 mm 0.00 in0.0 mm 0.30 in7.6 mm
07:15 PM 55.6°F13.1°C 51.2°F10.7°C 85% Calm Calm -- 29.80 in1009.1 mb 0.00 in0.0 mm 0.00 in0.0 mm 0.30 in7.6 mm
07:20 PM 55.6°F13.1°C 51.2°F10.7°C 85% Calm Calm -- 29.80 in1009.1 mb 0.00 in0.0 mm 0.00 in0.0 mm 0.30 in7.6 mm
07:25 PM 55.5°F13.1°C 51.4°F10.8°C 86% Calm Calm -- 29.80 in1009.1 mb 0.00 in0.0 mm 0.00 in0.0 mm 0.30 in7.6 mm
07:30 PM 55.5°F13.1°C 51.4°F10.8°C 86% Calm Calm -- 29.81 in1009.5 mb 0.00 in0.0 mm 0.00 in0.0 mm 0.30 in7.6 mm
07:35 PM 55.5°F13.1°C 51.4°F10.8°C 86% Calm Calm -- 29.81 in1009.5 mb 0.00 in0.0 mm 0.00 in0.0 mm 0.30 in7.6 mm
07:40 PM 55.5°F13.1°C 51.7°F10.9°C 87% Calm Calm -- 29.81 in1009.5 mb 0.00 in0.0 mm 0.00 in0.0 mm 0.30 in7.6 mm
07:45 PM 55.4°F13.0°C 51.6°F10.9°C 87% Calm Calm 3.0 mph4.8 kmh 29.81 in1009.5 mb 0.00 in0.0 mm 0.00 in0.0 mm 0.30 in7.6 mm
07:50 PM 55.4°F13.0°C 51.9°F11.1°C 88% 0.1 mph WSW0.2 kmh WSW 3.0 mph4.8 kmh 29.81 in1009.5 mb 0.00 in0.0 mm 0.00 in0.0 mm 0.30 in7.6 mm
07:55 PM 55.4°F13.0°C 51.9°F11.1°C 88% 0.6 mph WSW1.0 kmh WSW 2.0 mph3.2 kmh 29.82 in1009.8 mb 0.00 in0.0 mm 0.00 in0.0 mm 0.30 in7.6 mm
08:00 PM 55.1°F12.8°C 51.6°F10.9°C 88% 0.5 mph WSW0.8 kmh WSW 2.0 mph3.2 kmh 29.82 in1009.8 mb 0.00 in0.0 mm 0.00 in0.0 mm 0.30 in7.6 mm
08:05 PM 54.9°F12.7°C 51.7°F10.9°C 89% Calm Calm 2.0 mph3.2 kmh 29.82 in1009.8 mb 0.00 in0.0 mm 0.00 in0.0 mm 0.30 in7.6 mm
08:10 PM 54.8°F12.7°C 51.6°F10.9°C 89% Calm Calm -- 29.82 in1009.8 mb 0.00 in0.0 mm 0.00 in0.0 mm 0.30 in7.6 mm
08:15 PM 54.8°F12.7°C 51.6°F10.9°C 89% Calm Calm -- 29.82 in1009.8 mb 0.01 in0.3 mm 0.12 in3.0 mm 0.31 in7.9 mm
08:20 PM 54.6°F12.6°C 51.4°F10.8°C 89% 0.1 mph WSW0.2 kmh WSW 5.0 mph8.0 kmh 29.82 in1009.8 mb 0.01 in0.3 mm 0.00 in0.0 mm 0.31 in7.9 mm
08:25 PM 54.6°F12.6°C 51.7°F10.9°C 90% 0.6 mph WSW1.0 kmh WSW 5.0 mph8.0 kmh 29.82 in1009.8 mb 0.01 in0.3 mm 0.00 in0.0 mm 0.31 in7.9 mm
08:30 PM 54.5°F12.5°C 51.6°F10.9°C 90% 1.0 mph WSW1.6 kmh WSW 3.0 mph4.8 kmh 29.83 in1010.2 mb 0.01 in0.3 mm 0.00 in0.0 mm 0.31 in7.9 mm
08:35 PM 54.4°F12.4°C 51.5°F10.8°C 90% 0.9 mph W1.4 kmh W 2.0 mph3.2 kmh 29.82 in1009.8 mb 0.01 in0.3 mm 0.00 in0.0 mm 0.31 in7.9 mm
08:40 PM 54.4°F12.4°C 51.5°F10.8°C 90% 0.9 mph W1.4 kmh W 2.0 mph3.2 kmh 29.83 in1010.2 mb 0.01 in0.3 mm 0.00 in0.0 mm 0.31 in7.9 mm
08:45 PM 54.3°F12.4°C 51.7°F10.9°C 91% 0.9 mph W1.4 kmh W 2.0 mph3.2 kmh 29.83 in1010.2 mb 0.01 in0.3 mm 0.00 in0.0 mm 0.31 in7.9 mm
08:50 PM 54.3°F12.4°C 51.7°F10.9°C 91% 0.4 mph W0.6 kmh W 1.0 mph1.6 kmh 29.83 in1010.2 mb 0.01 in0.3 mm 0.00 in0.0 mm 0.31 in7.9 mm
08:55 PM 54.3°F12.4°C 51.7°F10.9°C 91% Calm Calm -- 29.83 in1010.2 mb 0.01 in0.3 mm 0.00 in0.0 mm 0.31 in7.9 mm
09:00 PM 54.4°F12.4°C 51.8°F11.0°C 91% Calm Calm -- 29.83 in1010.2 mb 0.01 in0.3 mm 0.00 in0.0 mm 0.31 in7.9 mm
09:05 PM 54.3°F12.4°C 51.7°F10.9°C 91% Calm Calm -- 29.83 in1010.2 mb 0.01 in0.3 mm 0.00 in0.0 mm 0.31 in7.9 mm
09:10 PM 54.2°F12.3°C 51.3°F10.7°C 90% Calm Calm -- 29.83 in1010.2 mb 0.01 in0.3 mm 0.00 in0.0 mm 0.31 in7.9 mm
09:15 PM 54.1°F12.3°C 51.5°F10.8°C 91% Calm Calm -- 29.83 in1010.2 mb 0.00 in0.0 mm 0.00 in0.0 mm 0.31 in7.9 mm
09:20 PM 54.1°F12.3°C 51.2°F10.7°C 90% Calm Calm 2.0 mph3.2 kmh 29.83 in1010.2 mb 0.00 in0.0 mm 0.00 in0.0 mm 0.31 in7.9 mm
09:25 PM 54.0°F12.2°C 51.1°F10.6°C 90% 0.3 mph WSW0.5 kmh WSW 2.0 mph3.2 kmh 29.83 in1010.2 mb 0.00 in0.0 mm 0.00 in0.0 mm 0.31 in7.9 mm
09:30 PM 54.0°F12.2°C 51.1°F10.6°C 90% 0.8 mph W1.3 kmh W 3.0 mph4.8 kmh 29.83 in1010.2 mb 0.00 in0.0 mm 0.00 in0.0 mm 0.31 in7.9 mm
09:35 PM 54.0°F12.2°C 51.1°F10.6°C 90% 1.0 mph WSW1.6 kmh WSW 3.0 mph4.8 kmh 29.83 in1010.2 mb 0.00 in0.0 mm 0.00 in0.0 mm 0.31 in7.9 mm
09:40 PM 53.9°F12.2°C 51.0°F10.6°C 90% 1.0 mph WSW1.6 kmh WSW 2.0 mph3.2 kmh 29.83 in1010.2 mb 0.00 in0.0 mm 0.00 in0.0 mm 0.31 in7.9 mm
09:45 PM 53.9°F12.2°C 51.0°F10.6°C 90% 0.7 mph WSW1.1 kmh WSW 2.0 mph3.2 kmh 29.83 in1010.2 mb 0.00 in0.0 mm 0.00 in0.0 mm 0.31 in7.9 mm
09:50 PM 54.0°F12.2°C 51.1°F10.6°C 90% 0.2 mph WSW0.3 kmh WSW 1.0 mph1.6 kmh 29.83 in1010.2 mb 0.00 in0.0 mm 0.00 in0.0 mm 0.31 in7.9 mm
09:55 PM 54.0°F12.2°C 51.1°F10.6°C 90% Calm Calm 1.0 mph1.6 kmh 29.83 in1010.2 mb 0.00 in0.0 mm 0.00 in0.0 mm 0.31 in7.9 mm
10:00 PM 53.9°F12.2°C 51.0°F10.6°C 90% Calm Calm 1.0 mph1.6 kmh 29.84 in1010.5 mb 0.00 in0.0 mm 0.00 in0.0 mm 0.31 in7.9 mm
10:05 PM 53.9°F12.2°C 51.0°F10.6°C 90% Calm Calm -- 29.84 in1010.5 mb 0.00 in0.0 mm 0.00 in0.0 mm 0.31 in7.9 mm
10:10 PM 53.8°F12.1°C 50.9°F10.5°C 90% Calm Calm -- 29.83 in1010.2 mb 0.01 in0.3 mm 0.12 in3.0 mm 0.31 in7.9 mm
10:15 PM 53.8°F12.1°C 50.9°F10.5°C 90% Calm Calm -- 29.83 in1010.2 mb 0.01 in0.3 mm 0.00 in0.0 mm 0.31 in7.9 mm
10:20 PM 53.7°F12.1°C 50.8°F10.4°C 90% Calm Calm -- 29.84 in1010.5 mb 0.02 in0.5 mm 0.12 in3.0 mm 0.32 in8.1 mm
10:25 PM 53.7°F12.1°C 50.8°F10.4°C 90% Calm Calm -- 29.83 in1010.2 mb 0.02 in0.5 mm 0.00 in0.0 mm 0.32 in8.1 mm
10:30 PM 53.8°F12.1°C 51.2°F10.7°C 91% Calm Calm -- 29.83 in1010.2 mb 0.02 in0.5 mm 0.00 in0.0 mm 0.33 in8.4 mm
10:35 PM 53.8°F12.1°C 51.2°F10.7°C 91% Calm Calm -- 29.84 in1010.5 mb 0.02 in0.5 mm 0.00 in0.0 mm 0.33 in8.4 mm
10:40 PM 53.7°F12.1°C 51.1°F10.6°C 91% Calm Calm -- 29.83 in1010.2 mb 0.02 in0.5 mm 0.00 in0.0 mm 0.33 in8.4 mm
10:45 PM 53.7°F12.1°C 51.1°F10.6°C 91% Calm Calm -- 29.83 in1010.2 mb 0.02 in0.5 mm 0.00 in0.0 mm 0.33 in8.4 mm
10:50 PM 53.6°F12.0°C 51.0°F10.6°C 91% Calm Calm -- 29.84 in1010.5 mb 0.02 in0.5 mm 0.00 in0.0 mm 0.33 in8.4 mm
10:55 PM 53.5°F11.9°C 50.9°F10.5°C 91% Calm Calm -- 29.84 in1010.5 mb 0.02 in0.5 mm 0.00 in0.0 mm 0.33 in8.4 mm
11:00 PM 53.5°F11.9°C 50.9°F10.5°C 91% Calm Calm -- 29.84 in1010.5 mb 0.02 in0.5 mm 0.00 in0.0 mm 0.25 in6.4 mm
11:05 PM 53.5°F11.9°C 51.2°F10.7°C 92% Calm Calm -- 29.84 in1010.5 mb 0.02 in0.5 mm 0.00 in0.0 mm 0.25 in6.4 mm
11:10 PM 53.5°F11.9°C 51.2°F10.7°C 92% Calm Calm -- 29.84 in1010.5 mb 0.02 in0.5 mm 0.00 in0.0 mm 0.25 in6.4 mm
11:15 PM 53.5°F11.9°C 51.2°F10.7°C 92% Calm Calm -- 29.84 in1010.5 mb 0.02 in0.5 mm 0.00 in0.0 mm 0.25 in6.4 mm
11:20 PM 53.5°F11.9°C 51.2°F10.7°C 92% Calm Calm -- 29.84 in1010.5 mb 0.01 in0.3 mm 0.00 in0.0 mm 0.25 in6.4 mm
11:25 PM 53.6°F12.0°C 51.3°F10.7°C 92% Calm Calm -- 29.84 in1010.5 mb 0.01 in0.3 mm 0.00 in0.0 mm 0.25 in6.4 mm
11:30 PM 53.6°F12.0°C 51.3°F10.7°C 92% Calm Calm -- 29.84 in1010.5 mb 0.00 in0.0 mm 0.00 in0.0 mm 0.25 in6.4 mm
11:35 PM 53.5°F11.9°C 51.2°F10.7°C 92% Calm Calm 2.0 mph3.2 kmh 29.84 in1010.5 mb 0.00 in0.0 mm 0.00 in0.0 mm 0.25 in6.4 mm
11:40 PM 53.5°F11.9°C 51.2°F10.7°C 92% 0.2 mph WSW0.3 kmh WSW 2.0 mph3.2 kmh 29.84 in1010.5 mb 0.01 in0.3 mm 0.12 in3.0 mm 0.01 in0.3 mm
11:45 PM 53.5°F11.9°C 51.2°F10.7°C 92% 0.7 mph WSW1.1 kmh WSW 2.0 mph3.2 kmh 29.84 in1010.5 mb 0.01 in0.3 mm 0.00 in0.0 mm 0.01 in0.3 mm
11:50 PM 53.6°F12.0°C 51.3°F10.7°C 92% 1.0 mph WSW1.6 kmh WSW 2.0 mph3.2 kmh 29.84 in1010.5 mb 0.01 in0.3 mm 0.00 in0.0 mm 0.01 in0.3 mm
11:55 PM 53.5°F11.9°C 51.2°F10.7°C 92% 1.0 mph WSW1.6 kmh WSW 2.0 mph3.2 kmh 29.84 in1010.5 mb 0.01 in0.3 mm 0.00 in0.0 mm 0.01 in0.3 mm